Mobile Site You Are Here > Home > Minor Leagues > Players > Kevin Plawecki 2013 Minor League Gamelogs & Splits


Kevin Plawecki

Kevin Jeffrey Plawecki

Positions: Catcher and First Baseman
Bats: Right, Throws: Right
Height: 6' 2", Weight: 225 lb.

Born: February 26, 1991 in Carmel, Indiana, US
High School: Westfield HS (Westfield, IN)
School: Purdue University (West Lafayette, IN)

Drafted by the New York Mets in the 1st round (35th) of the 2012 MLB June Amateur Draft from Purdue University (West Lafayette, IN).

Kevin Plawecki
/ Gamelogs & Splits
 Batting: 2014 / 2013 / 2012

2013 Player Batting Gamelog

Rk Date Lev Tm   Opp PA AB R H 2B 3B HR RBI BB IBB SO HBP SH SF GDP SB CS Pos E
1 2013-04-04 A-SALL Savannah Sand Gnats Rome Braves 4 3 0 1 0 0 0 0 1 0 1 0 0 0 1 0 0 C 0
2 2013-04-05 A-SALL Savannah Sand Gnats Rome Braves 5 5 2 3 0 0 1 2 0 0 0 0 0 0 0 0 0 C 0
3 2013-04-06 A-SALL Savannah Sand Gnats @ Rome Braves 4 3 1 2 0 0 0 1 1 0 1 0 0 0 0 0 0 0
4 2013-04-07 A-SALL Savannah Sand Gnats @ Rome Braves 5 4 0 1 0 0 0 1 1 0 2 0 0 0 0 0 0 C 0
5 2013-04-08 A-SALL Savannah Sand Gnats Augusta GreenJackets 4 3 0 0 0 0 0 0 0 0 1 1 0 0 1 0 0 C 0
6 2013-04-09 A-SALL Savannah Sand Gnats Augusta GreenJackets 5 4 1 2 1 0 0 2 0 0 0 0 0 1 0 0 0 0
7 2013-04-10 A-SALL Savannah Sand Gnats Augusta GreenJackets 5 5 1 3 3 0 0 1 0 0 0 0 0 0 1 0 0 C 0
8 2013-04-12 A-SALL Savannah Sand Gnats @ Rome Braves 4 4 1 3 2 0 0 1 0 0 0 0 0 0 0 0 0 C 0
9 2013-04-13 A-SALL Savannah Sand Gnats Rome Braves 4 4 0 1 1 0 0 1 0 0 1 0 0 0 0 0 0 0
10 2013-04-14 A-SALL Savannah Sand Gnats Rome Braves 4 4 0 0 0 0 0 0 0 0 0 0 0 0 0 0 0 C 0
11 2013-04-15 A-SALL Savannah Sand Gnats @ Greensboro Grasshoppers 5 4 2 1 1 0 0 0 0 0 0 1 0 0 0 0 0 0
12 2013-04-16 A-SALL Savannah Sand Gnats @ Greensboro Grasshoppers 5 5 1 1 0 0 1 2 0 0 0 0 0 0 1 0 0 C 0
13 2013-04-18 A-SALL Savannah Sand Gnats @ Lakewood BlueClaws 4 3 0 0 0 0 0 0 0 0 0 1 0 0 0 0 0 C 0
14 2013-04-19 A-SALL Savannah Sand Gnats @ Lakewood BlueClaws 5 4 1 3 0 0 1 4 1 0 0 0 0 0 0 0 0 C 0
15 2013-04-20 A-SALL Savannah Sand Gnats @ Lakewood BlueClaws 5 4 0 1 1 0 0 0 1 0 1 0 0 0 0 0 0 0
16 2013-04-21 A-SALL Savannah Sand Gnats @ Lakewood BlueClaws 4 4 1 2 0 0 0 1 0 0 1 0 0 0 0 0 0 C 0
17 2013-04-23 A-SALL Savannah Sand Gnats Delmarva Shorebirds 4 3 0 1 0 0 0 1 1 0 1 0 0 0 0 0 0 C 0
18 2013-04-24 A-SALL Savannah Sand Gnats Delmarva Shorebirds 5 4 0 1 1 0 0 2 0 0 1 0 0 1 0 0 0 C 0
19 2013-04-25 A-SALL Savannah Sand Gnats Delmarva Shorebirds 4 4 2 3 1 0 1 1 0 0 0 0 0 0 0 0 0 0
20 2013-04-26 A-SALL Savannah Sand Gnats West Virginia Power 4 3 0 1 0 0 0 0 0 0 0 1 0 0 0 0 0 C 0
21 2013-04-27 A-SALL Savannah Sand Gnats West Virginia Power 3 3 0 2 0 0 0 0 0 0 0 0 0 0 0 0 0 C 0
22 2013-04-28 A-SALL Savannah Sand Gnats West Virginia Power 5 4 1 1 1 0 0 0 0 0 0 1 0 0 0 0 0 0
23 2013-04-29 A-SALL Savannah Sand Gnats West Virginia Power 4 3 0 1 0 0 0 0 1 0 1 0 0 0 0 0 0 C 0
24 2013-05-01 A-SALL Savannah Sand Gnats Kannapolis Intimidators 5 5 1 3 3 0 0 1 0 0 1 0 0 0 0 0 0 C 0
25 2013-05-02 A-SALL Savannah Sand Gnats Kannapolis Intimidators 4 4 0 2 1 0 0 1 0 0 1 0 0 0 0 0 0 C 0
26 2013-05-03 A-SALL Savannah Sand Gnats Kannapolis Intimidators 5 5 0 2 2 0 0 2 0 0 0 0 0 0 0 0 0 0
27 2013-05-04 A-SALL Savannah Sand Gnats @ Hickory Crawdads 5 5 1 3 1 0 1 4 0 0 0 0 0 0 0 0 0 C 0
28 2013-05-06 A-SALL Savannah Sand Gnats @ Hickory Crawdads 4 3 0 0 0 0 0 1 1 0 0 0 0 0 0 0 0 C 0
29 2013-05-06 (2) A-SALL Savannah Sand Gnats @ Hickory Crawdads 3 3 1 1 0 0 0 0 0 0 1 0 0 0 0 0 0 0
30 2013-05-07 A-SALL Savannah Sand Gnats @ Hickory Crawdads 5 3 0 1 0 0 0 1 0 0 0 1 0 1 0 0 0 C 0
31 2013-05-09 A-SALL Savannah Sand Gnats Rome Braves 4 3 1 1 0 0 0 0 1 0 0 0 0 0 0 0 0 C 0
32 2013-05-10 A-SALL Savannah Sand Gnats Rome Braves 4 4 0 1 1 0 0 1 0 0 0 0 0 0 0 0 0 C 0
33 2013-05-11 A-SALL Savannah Sand Gnats Rome Braves 3 3 1 1 1 0 0 0 0 0 1 0 0 0 0 0 0 0
34 2013-05-12 A-SALL Savannah Sand Gnats Rome Braves 4 3 0 1 0 0 0 0 0 0 0 1 0 0 0 0 0 C 0
35 2013-05-13 A-SALL Savannah Sand Gnats @ Charleston RiverDogs 5 4 1 0 0 0 0 0 1 0 1 0 0 0 0 0 0 C 0
36 2013-05-14 A-SALL Savannah Sand Gnats @ Charleston RiverDogs 5 4 1 1 0 1 0 0 1 0 1 0 0 0 0 0 0 0
37 2013-05-15 A-SALL Savannah Sand Gnats @ Charleston RiverDogs 4 4 0 1 0 0 0 0 0 0 1 0 0 0 0 0 0 C 0
38 2013-05-16 A-SALL Savannah Sand Gnats @ Augusta GreenJackets 5 3 1 0 0 0 0 0 2 2 2 0 0 0 0 0 0 C 0
39 2013-05-17 A-SALL Savannah Sand Gnats @ Augusta GreenJackets 4 3 0 0 0 0 0 0 1 0 0 0 0 0 0 0 0 0
40 2013-05-18 A-SALL Savannah Sand Gnats @ Augusta GreenJackets 4 2 2 2 0 0 0 1 0 0 0 2 0 0 0 0 0 C 0
41 2013-05-20 A-SALL Savannah Sand Gnats Charleston RiverDogs 4 4 1 1 0 0 0 0 0 0 0 0 0 0 0 0 0 C 0
42 2013-05-21 A-SALL Savannah Sand Gnats Charleston RiverDogs 4 2 0 0 0 0 0 0 2 0 0 0 0 0 0 0 0 C 0
43 2013-05-22 A-SALL Savannah Sand Gnats Charleston RiverDogs 5 5 0 3 0 0 0 1 0 0 0 0 0 0 0 0 0 0
44 2013-05-23 A-SALL Savannah Sand Gnats Augusta GreenJackets 4 4 0 1 1 0 0 0 0 0 0 0 0 0 0 0 0 C 0
45 2013-05-24 A-SALL Savannah Sand Gnats Augusta GreenJackets 4 3 1 2 0 0 1 4 1 0 0 0 0 0 0 0 0 C 0
46 2013-05-25 A-SALL Savannah Sand Gnats Augusta GreenJackets 4 4 0 0 0 0 0 0 0 0 0 0 0 0 1 0 0 0
47 2013-05-26 A-SALL Savannah Sand Gnats Augusta GreenJackets 6 6 0 2 0 0 0 1 0 0 0 0 0 0 0 0 0 C 0
48 2013-05-27 A-SALL Savannah Sand Gnats @ Greenville Drive 4 3 0 0 0 0 0 0 1 0 0 0 0 0 0 0 0 0
49 2013-05-28 A-SALL Savannah Sand Gnats @ Greenville Drive 5 5 2 1 0 0 0 0 0 0 1 0 0 0 1 0 0 C 1
50 2013-05-29 A-SALL Savannah Sand Gnats @ Greenville Drive 4 4 0 0 0 0 0 0 0 0 2 0 0 0 0 0 0 C 0
51 2013-05-30 A-SALL Savannah Sand Gnats @ Kannapolis Intimidators 5 5 0 2 0 0 0 1 0 0 1 0 0 0 0 0 0 C 1
52 2013-05-31 A-SALL Savannah Sand Gnats @ Kannapolis Intimidators 4 4 1 1 0 0 0 0 0 0 0 0 0 0 1 1 0 0
53 2013-06-01 A-SALL Savannah Sand Gnats @ Kannapolis Intimidators 4 4 1 2 0 0 0 0 0 0 0 0 0 0 0 0 0 C 0
54 2013-06-04 A-SALL Savannah Sand Gnats Lexington Legends 5 3 1 1 0 0 0 1 0 0 1 1 0 1 0 0 0 C 1
55 2013-06-05 A-SALL Savannah Sand Gnats Lexington Legends 4 4 0 1 1 0 0 0 0 0 2 0 0 0 0 0 0 C 1
56 2013-06-07 A-SALL Savannah Sand Gnats @ Rome Braves 5 5 0 1 0 0 0 1 0 0 2 0 0 0 0 0 0 C 0
57 2013-06-08 A-SALL Savannah Sand Gnats @ Rome Braves 3 2 2 0 0 0 0 0 1 0 0 0 0 0 0 0 0 C 0
58 2013-06-08 (2) A-SALL Savannah Sand Gnats @ Rome Braves 3 3 0 0 0 0 0 0 0 0 0 0 0 0 0 0 0 0
59 2013-06-09 A-SALL Savannah Sand Gnats @ Rome Braves 4 3 0 0 0 0 0 0 1 0 1 0 0 0 0 0 0 C 0
60 2013-06-11 A-SALL Savannah Sand Gnats Asheville Tourists 4 4 1 2 0 0 0 0 0 0 0 0 0 0 0 0 0 0
61 2013-06-11 (2) A-SALL Savannah Sand Gnats Asheville Tourists 4 4 0 0 0 0 0 0 0 0 1 0 0 0 1 0 0 C 0
62 2013-06-12 A-SALL Savannah Sand Gnats Asheville Tourists 5 4 1 1 0 0 0 1 1 0 0 0 0 0 0 0 0 C 0
63 2013-06-14 A-SALL Savannah Sand Gnats Greenville Drive 5 4 0 0 0 0 0 0 1 0 0 0 0 0 2 0 0 C 0
64 2013-06-15 A-SALL Savannah Sand Gnats Greenville Drive 4 4 0 1 1 0 0 1 0 0 1 0 0 0 0 0 0 0
65 2013-06-16 A-SALL Savannah Sand Gnats Greenville Drive 5 4 0 1 0 0 0 0 1 0 0 0 0 0 1 0 0 C 0
Player Moved from A-SALL to A+-FLOR
66 2013-06-20 A+-FLOR St. Lucie Mets @ Palm Beach Cardinals 5 5 1 2 0 0 1 4 0 0 1 0 0 0 0 0 0 C 0
67 2013-06-21 A+-FLOR St. Lucie Mets @ Palm Beach Cardinals 4 4 1 1 1 0 0 1 0 0 1 0 0 0 1 0 0 C 0
68 2013-06-22 A+-FLOR St. Lucie Mets @ Palm Beach Cardinals 4 4 0 1 0 0 0 0 0 0 0 0 0 0 0 0 0 0
69 2013-06-23 A+-FLOR St. Lucie Mets Bradenton Marauders 4 4 0 0 0 0 0 0 0 0 1 0 0 0 0 0 0 C 0
70 2013-06-24 A+-FLOR St. Lucie Mets Bradenton Marauders 6 6 0 3 0 0 0 0 0 0 0 0 0 0 0 0 0 C 0
71 2013-06-25 A+-FLOR St. Lucie Mets Bradenton Marauders 4 4 0 2 0 0 0 1 0 0 0 0 0 0 0 0 0 0
72 2013-06-26 A+-FLOR St. Lucie Mets Palm Beach Cardinals 4 4 2 3 2 0 0 3 0 0 1 0 0 0 0 0 0 C 0
73 2013-06-27 A+-FLOR St. Lucie Mets Palm Beach Cardinals 2 2 0 1 0 0 0 0 0 0 0 0 0 0 0 0 0 C 0
74 2013-06-30 A+-FLOR St. Lucie Mets @ Fort Myers Miracle 3 3 0 0 0 0 0 0 0 0 1 0 0 0 0 0 0 C 0
75 2013-07-03 A+-FLOR St. Lucie Mets @ Jupiter Hammerheads 4 4 0 0 0 0 0 0 0 0 0 0 0 0 0 0 0 C 0
76 2013-07-04 A+-FLOR St. Lucie Mets Jupiter Hammerheads 4 4 1 1 1 0 0 1 0 0 0 0 0 0 0 0 0 C 0
77 2013-07-05 A+-FLOR St. Lucie Mets Jupiter Hammerheads 4 3 0 1 0 0 0 0 1 0 0 0 0 0 0 0 0 C 0
78 2013-07-06 A+-FLOR St. Lucie Mets Fort Myers Miracle 4 3 1 2 0 0 0 1 0 0 0 1 0 0 0 0 0 1B 0
79 2013-07-07 A+-FLOR St. Lucie Mets Fort Myers Miracle 3 2 0 0 0 0 0 0 0 0 2 1 0 0 0 0 0 C 0
80 2013-07-08 A+-FLOR St. Lucie Mets Fort Myers Miracle 4 3 0 1 0 0 0 2 1 0 0 0 0 0 0 0 0 C 0
81 2013-07-09 A+-FLOR St. Lucie Mets @ Charlotte Stone Crabs 4 4 0 1 0 0 0 0 0 0 1 0 0 0 0 0 0 C 0
82 2013-07-10 A+-FLOR St. Lucie Mets @ Charlotte Stone Crabs 5 4 1 2 1 0 0 2 0 0 0 1 0 0 0 0 0 1B 0
83 2013-07-11 A+-FLOR St. Lucie Mets @ Charlotte Stone Crabs 4 4 1 3 1 0 0 2 0 0 0 0 0 0 0 0 0 C 0
84 2013-07-12 A+-FLOR St. Lucie Mets Dunedin Blue Jays 4 3 1 2 0 0 0 1 0 0 0 1 0 0 0 0 0 1B 0
85 2013-07-14 A+-FLOR St. Lucie Mets Dunedin Blue Jays 3 2 0 0 0 0 0 0 1 0 0 0 0 0 0 0 0 C 0
86 2013-07-15 A+-FLOR St. Lucie Mets Dunedin Blue Jays 3 2 0 1 0 0 0 0 1 0 1 0 0 0 0 0 0 1B 0
87 2013-07-17 A+-FLOR St. Lucie Mets @ Brevard County Manatees 5 3 1 0 0 0 0 0 2 0 1 0 0 0 0 0 0 C 0
88 2013-07-18 A+-FLOR St. Lucie Mets @ Brevard County Manatees 4 4 0 1 0 0 0 0 0 0 0 0 0 0 0 0 0 C 0
89 2013-07-19 A+-FLOR St. Lucie Mets Brevard County Manatees 4 3 0 1 0 0 0 1 0 0 1 1 0 0 0 0 0 1B 0
90 2013-07-21 A+-FLOR St. Lucie Mets @ Daytona Cubs 5 3 0 0 0 0 0 0 2 0 0 0 0 0 1 0 0 C 0
91 2013-07-23 A+-FLOR St. Lucie Mets @ Daytona Cubs 3 3 1 1 0 0 0 1 0 0 0 0 0 0 0 0 0 C 0
92 2013-07-23 (2) A+-FLOR St. Lucie Mets @ Daytona Cubs 3 3 0 0 0 0 0 0 0 0 0 0 0 0 0 0 0 1B 0
93 2013-07-26 A+-FLOR St. Lucie Mets @ Lakeland Flying Tigers 3 2 0 0 0 0 0 0 1 0 0 0 0 0 0 0 0 1B 1
94 2013-07-26 (2) A+-FLOR St. Lucie Mets @ Lakeland Flying Tigers 4 4 0 0 0 0 0 0 0 0 1 0 0 0 0 0 0 1B,C 0
95 2013-07-27 A+-FLOR St. Lucie Mets @ Lakeland Flying Tigers 4 2 0 2 1 0 0 0 0 0 0 2 0 0 0 0 0 C 1
96 2013-07-28 A+-FLOR St. Lucie Mets @ Lakeland Flying Tigers 4 3 0 0 0 0 0 0 0 0 0 1 0 0 0 0 0 1B 0
97 2013-07-29 A+-FLOR St. Lucie Mets Tampa Yankees 4 3 1 1 1 0 0 0 1 0 0 0 0 0 0 0 0 C 0
98 2013-07-30 A+-FLOR St. Lucie Mets Tampa Yankees 4 3 0 1 0 0 0 1 1 0 0 0 0 0 0 0 0 C 0
99 2013-07-31 A+-FLOR St. Lucie Mets Tampa Yankees 3 3 0 2 0 0 0 0 0 0 0 0 0 0 0 0 0 1B 0
100 2013-08-01 A+-FLOR St. Lucie Mets Tampa Yankees 4 2 1 0 0 0 0 0 2 0 0 0 0 0 0 0 0 C 0
101 2013-08-02 A+-FLOR St. Lucie Mets Clearwater Threshers 4 4 0 2 1 0 0 1 0 0 1 0 0 0 0 0 0 C 0
102 2013-08-03 A+-FLOR St. Lucie Mets Clearwater Threshers 5 4 2 2 0 0 0 1 0 0 0 1 0 0 0 0 0 1B 0
103 2013-08-04 A+-FLOR St. Lucie Mets Clearwater Threshers 4 4 0 1 0 0 0 1 0 0 0 0 0 0 0 0 0 C 0
104 2013-08-07 A+-FLOR St. Lucie Mets @ Bradenton Marauders 5 3 1 0 0 0 0 1 1 0 1 1 0 0 0 0 0 C 0
105 2013-08-08 A+-FLOR St. Lucie Mets @ Bradenton Marauders 4 4 1 2 0 0 0 2 0 0 1 0 0 0 0 0 0 C 0
106 2013-08-10 A+-FLOR St. Lucie Mets Palm Beach Cardinals 5 4 1 2 1 0 0 1 1 0 0 0 0 0 0 0 0 C 0
107 2013-08-11 A+-FLOR St. Lucie Mets Palm Beach Cardinals 6 4 2 1 0 0 0 1 1 0 1 0 1 0 0 0 0 1B 0
108 2013-08-12 A+-FLOR St. Lucie Mets Palm Beach Cardinals 4 3 0 0 0 0 0 0 1 0 0 0 0 0 1 0 0 C 0
109 2013-08-13 A+-FLOR St. Lucie Mets Fort Myers Miracle 4 4 1 2 0 0 1 2 0 0 1 0 0 0 0 0 0 C 0
110 2013-08-14 A+-FLOR St. Lucie Mets Fort Myers Miracle 4 4 0 0 0 0 0 0 0 0 1 0 0 0 0 0 0 C 0
111 2013-08-15 A+-FLOR St. Lucie Mets Fort Myers Miracle 5 4 0 1 0 0 0 1 1 0 0 0 0 0 0 0 0 C 1
112 2013-08-16 A+-FLOR St. Lucie Mets Jupiter Hammerheads 4 4 0 1 1 0 0 0 0 0 1 0 0 0 1 0 0 0
113 2013-08-17 A+-FLOR St. Lucie Mets @ Jupiter Hammerheads 4 3 0 0 0 0 0 1 1 0 0 0 0 0 0 0 0 C 0
114 2013-08-18 A+-FLOR St. Lucie Mets @ Jupiter Hammerheads 4 4 0 0 0 0 0 0 0 0 0 0 0 0 0 0 0 1B,C 0
115 2013-08-20 A+-FLOR St. Lucie Mets @ Palm Beach Cardinals 5 4 1 2 0 0 0 0 0 0 0 1 0 0 0 0 0 C 0
116 2013-08-21 A+-FLOR St. Lucie Mets @ Palm Beach Cardinals 3 3 0 0 0 0 0 0 0 0 0 0 0 0 0 0 0 1B 0
117 2013-08-22 A+-FLOR St. Lucie Mets @ Palm Beach Cardinals 4 4 1 2 0 0 0 0 0 0 0 0 0 0 0 0 0 C 0
118 2013-08-23 A+-FLOR St. Lucie Mets @ Fort Myers Miracle 5 5 0 1 1 0 0 0 0 0 0 0 0 0 0 0 0 C 0
119 2013-08-23 (2) A+-FLOR St. Lucie Mets @ Fort Myers Miracle 3 3 0 0 0 0 0 0 0 0 0 0 0 0 0 0 0 1B 0
120 2013-08-25 A+-FLOR St. Lucie Mets @ Fort Myers Miracle 2 2 0 0 0 0 0 1 0 0 1 0 0 0 0 0 0 C 0
121 2013-08-27 A+-FLOR St. Lucie Mets Charlotte Stone Crabs 4 3 0 1 0 0 0 1 0 0 0 1 0 0 0 0 0 C 0
122 2013-08-28 A+-FLOR St. Lucie Mets Charlotte Stone Crabs 3 3 0 0 0 0 0 0 0 0 1 0 0 0 0 0 0 C 0
123 2013-08-29 A+-FLOR St. Lucie Mets @ Jupiter Hammerheads 4 4 0 1 0 0 0 0 0 0 0 0 0 0 0 0 0 C 0
124 2013-08-30 A+-FLOR St. Lucie Mets @ Jupiter Hammerheads 4 3 1 2 2 0 0 1 0 0 0 1 0 0 0 0 0 1B 0
125 2013-09-01 A+-FLOR St. Lucie Mets Jupiter Hammerheads 4 2 1 1 0 0 0 1 0 0 0 1 0 1 0 0 0 1B 0

2013 Player Batting Splits

Split G PA AB R H 2B 3B HR RBI SB CS BB SO BA OBP SLG OPS TB GDP HBP SH SF IBB
Total 125 521 449 60 137 38 1 8 80 1 0 42 53 .305 .390 .448 .838 201 15 24 1 5 2
Home 67 280 241 29 83 26 0 4 45 0 0 22 26 .344 .419 .502 .921 121 10 12 1 4 0
Away 58 241 208 31 54 12 1 4 35 1 0 20 27 .260 .357 .385 .741 80 5 12 0 1 2
vs RHP as RHB 118 386 328 93 30 0 3 48 33 44 .284 .383 .402 .786 132 11 22 0 3 2
vs LHP as RHB 60 135 121 44 8 1 5 32 9 9 .364 .410 .570 .981 69 4 2 1 2 0
April 23 101 87 14 34 12 0 4 20 0 0 7 11 .391 .455 .667 1.122 58 4 5 0 2 0
May 29 126 110 15 33 10 1 2 19 1 0 11 13 .300 .381 .464 .845 51 3 4 0 1 2
June 22 91 84 10 23 5 0 1 13 0 0 5 13 .274 .319 .369 .688 31 5 1 0 1 0
July 25 96 77 8 23 5 0 0 12 0 0 11 7 .299 .438 .364 .801 28 1 8 0 0 0
August 25 103 89 12 23 6 0 1 15 0 0 8 9 .258 .353 .360 .712 32 2 5 1 0 0
September 1 4 2 1 1 0 0 0 1 0 0 0 0 .500 .500 .500 1.000 1 0 1 0 1 0
2 outs, RISP 80 110 99 25 7 0 3 26 8 10 .253 .327 .414 .741 41 0 3 0 0 0
vs. Younger Pitchers 71 195 173 51 17 1 4 28 12 19 .295 .364 .474 .838 82 8 8 0 2 1
vs. Older Pitchers 112 326 276 86 21 0 4 52 30 34 .312 .406 .431 .837 119 7 16 1 3 1
Please note that splits include both major and minor league stats. We have decided that the splits across all levels is more useful than just minor league stats.

About the Minor League Data

Performance data on minor and international leagues is licensed from and provided by the SABR Minor Leagues Database, a community project sponsored by the Minor Leagues Committee of the Society for American Baseball Research.

The database is under active development. Many statistics are incomplete due to ongoing research and/or limitations in published sources. To learn more about these limitations, or to find out how to contribute, click here.

Minor league Total Zone (Rctch&Rtz, 2005-2009) data provided by Baseballprojection.com and Minorleaguesplits.com.